Terminal Aerodrome Forecast
Issued by NWS Jackson, KY

Home | Current Version | Previous Version | Text Only | Print | Product List | Glossary On
Versions: 1 2 3 4 5 6 7 8 9 10 11 12 13 14 15 16 17
000
FTUS43 KJKL 271952 AAB
TAFJKL
TAF AMD
KJKL 271952Z 2720/2818 VRB03KT P6SM FEW029 BKN035 BKN050
     FM280000 27006KT P6SM SCT040 BKN110
     FM281000 00000KT P6SM FEW110=

USA.gov is the U.S. government's official web portal to all federal, state and local government web resources and services.